sensor_id;sensor_type;location;lat;lon;timestamp;P1;durP1;ratioP1;P2;durP2;ratioP2
15126;SDS011;7664;52.008;4.748;2024-01-27T00:01:00;8.27;;;2.60;;
15126;SDS011;7664;52.008;4.748;2024-01-27T00:03:29;7.80;;;2.45;;
15126;SDS011;7664;52.008;4.748;2024-01-27T00:05:58;6.88;;;2.03;;
15126;SDS011;7664;52.008;4.748;2024-01-27T00:08:27;15.45;;;2.75;;
15126;SDS011;7664;52.008;4.748;2024-01-27T00:10:55;15.75;;;2.70;;
15126;SDS011;7664;52.008;4.748;2024-01-27T00:13:23;16.15;;;2.47;;
15126;SDS011;7664;52.008;4.748;2024-01-27T00:15:52;10.05;;;2.53;;
15126;SDS011;7664;52.008;4.748;2024-01-27T00:18:22;9.10;;;2.25;;
15126;SDS011;7664;52.008;4.748;2024-01-27T00:20:51;9.07;;;2.65;;
15126;SDS011;7664;52.008;4.748;2024-01-27T00:23:20;11.82;;;2.70;;
15126;SDS011;7664;52.008;4.748;2024-01-27T00:25:48;7.18;;;2.60;;
15126;SDS011;7664;52.008;4.748;2024-01-27T00:28:16;14.77;;;2.75;;
15126;SDS011;7664;52.008;4.748;2024-01-27T00:30:45;6.53;;;2.63;;
15126;SDS011;7664;52.008;4.748;2024-01-27T00:33:13;7.00;;;2.50;;
15126;SDS011;7664;52.008;4.748;2024-01-27T00:35:43;12.32;;;3.65;;
15126;SDS011;7664;52.008;4.748;2024-01-27T00:38:12;11.98;;;3.03;;
15126;SDS011;7664;52.008;4.748;2024-01-27T00:40:41;8.60;;;1.90;;
15126;SDS011;7664;52.008;4.748;2024-01-27T00:43:09;10.90;;;2.35;;
15126;SDS011;7664;52.008;4.748;2024-01-27T00:45:38;9.48;;;2.53;;
15126;SDS011;7664;52.008;4.748;2024-01-27T00:48:06;8.13;;;1.98;;
15126;SDS011;7664;52.008;4.748;2024-01-27T00:50:35;7.00;;;2.17;;
15126;SDS011;7664;52.008;4.748;2024-01-27T00:53:05;9.43;;;3.00;;
15126;SDS011;7664;52.008;4.748;2024-01-27T00:55:33;9.85;;;2.13;;
15126;SDS011;7664;52.008;4.748;2024-01-27T00:58:02;6.57;;;1.60;;
15126;SDS011;7664;52.008;4.748;2024-01-27T01:00:30;9.52;;;2.58;;
15126;SDS011;7664;52.008;4.748;2024-01-27T01:02:59;10.75;;;2.40;;
15126;SDS011;7664;52.008;4.748;2024-01-27T01:05:28;9.02;;;2.40;;
15126;SDS011;7664;52.008;4.748;2024-01-27T01:07:56;6.13;;;1.98;;
15126;SDS011;7664;52.008;4.748;2024-01-27T01:10:26;9.70;;;2.33;;
15126;SDS011;7664;52.008;4.748;2024-01-27T01:12:55;9.75;;;2.50;;
15126;SDS011;7664;52.008;4.748;2024-01-27T01:15:24;5.25;;;2.00;;
15126;SDS011;7664;52.008;4.748;2024-01-27T01:17:53;7.28;;;1.65;;
15126;SDS011;7664;52.008;4.748;2024-01-27T01:20:21;8.30;;;1.85;;
15126;SDS011;7664;52.008;4.748;2024-01-27T01:22:52;7.22;;;2.17;;
15126;SDS011;7664;52.008;4.748;2024-01-27T01:25:20;8.07;;;2.45;;
15126;SDS011;7664;52.008;4.748;2024-01-27T01:27:50;7.78;;;2.22;;
15126;SDS011;7664;52.008;4.748;2024-01-27T01:30:19;6.00;;;2.13;;
15126;SDS011;7664;52.008;4.748;2024-01-27T01:32:47;10.35;;;2.50;;
15126;SDS011;7664;52.008;4.748;2024-01-27T01:35:17;12.40;;;2.70;;
15126;SDS011;7664;52.008;4.748;2024-01-27T01:37:45;11.52;;;2.35;;
15126;SDS011;7664;52.008;4.748;2024-01-27T01:40:14;8.65;;;1.75;;
15126;SDS011;7664;52.008;4.748;2024-01-27T01:42:43;6.78;;;2.00;;
15126;SDS011;7664;52.008;4.748;2024-01-27T01:45:13;8.30;;;2.38;;
15126;SDS011;7664;52.008;4.748;2024-01-27T01:47:41;11.30;;;2.35;;
15126;SDS011;7664;52.008;4.748;2024-01-27T01:50:10;12.95;;;2.38;;
15126;SDS011;7664;52.008;4.748;2024-01-27T01:52:39;10.13;;;1.77;;
15126;SDS011;7664;52.008;4.748;2024-01-27T01:55:07;5.70;;;1.85;;
15126;SDS011;7664;52.008;4.748;2024-01-27T01:57:38;7.00;;;1.80;;
15126;SDS011;7664;52.008;4.748;2024-01-27T02:00:07;6.82;;;1.50;;
15126;SDS011;7664;52.008;4.748;2024-01-27T02:02:42;13.40;;;1.98;;
15126;SDS011;7664;52.008;4.748;2024-01-27T02:05:11;5.55;;;1.90;;
15126;SDS011;7664;52.008;4.748;2024-01-27T02:07:40;10.07;;;2.15;;
15126;SDS011;7664;52.008;4.748;2024-01-27T02:10:12;7.30;;;2.45;;
15126;SDS011;7664;52.008;4.748;2024-01-27T02:12:42;5.57;;;1.70;;
15126;SDS011;7664;52.008;4.748;2024-01-27T02:15:11;7.72;;;2.10;;
15126;SDS011;7664;52.008;4.748;2024-01-27T02:17:41;4.93;;;1.48;;
15126;SDS011;7664;52.008;4.748;2024-01-27T02:20:10;8.80;;;2.25;;
15126;SDS011;7664;52.008;4.748;2024-01-27T02:22:38;7.40;;;2.60;;
15126;SDS011;7664;52.008;4.748;2024-01-27T02:25:08;7.50;;;1.77;;
15126;SDS011;7664;52.008;4.748;2024-01-27T02:27:37;11.48;;;2.00;;
15126;SDS011;7664;52.008;4.748;2024-01-27T02:30:06;5.65;;;1.70;;
15126;SDS011;7664;52.008;4.748;2024-01-27T02:32:35;7.20;;;1.65;;
15126;SDS011;7664;52.008;4.748;2024-01-27T02:35:03;5.80;;;1.58;;
15126;SDS011;7664;52.008;4.748;2024-01-27T02:37:32;5.95;;;1.90;;
15126;SDS011;7664;52.008;4.748;2024-01-27T02:40:00;8.95;;;2.13;;
15126;SDS011;7664;52.008;4.748;2024-01-27T02:42:30;7.32;;;1.27;;
15126;SDS011;7664;52.008;4.748;2024-01-27T02:44:59;8.80;;;1.35;;
15126;SDS011;7664;52.008;4.748;2024-01-27T02:47:28;7.00;;;2.05;;
15126;SDS011;7664;52.008;4.748;2024-01-27T02:49:56;9.73;;;2.15;;
15126;SDS011;7664;52.008;4.748;2024-01-27T02:52:25;10.05;;;2.45;;
15126;SDS011;7664;52.008;4.748;2024-01-27T02:54:53;6.22;;;1.88;;
15126;SDS011;7664;52.008;4.748;2024-01-27T02:57:22;7.75;;;1.83;;
15126;SDS011;7664;52.008;4.748;2024-01-27T02:59:52;9.93;;;1.70;;
15126;SDS011;7664;52.008;4.748;2024-01-27T03:02:20;7.25;;;1.70;;
15126;SDS011;7664;52.008;4.748;2024-01-27T03:04:49;10.50;;;2.00;;
15126;SDS011;7664;52.008;4.748;2024-01-27T03:07:18;8.38;;;2.60;;
15126;SDS011;7664;52.008;4.748;2024-01-27T03:09:46;8.88;;;1.58;;
15126;SDS011;7664;52.008;4.748;2024-01-27T03:12:14;11.70;;;2.40;;
15126;SDS011;7664;52.008;4.748;2024-01-27T03:14:44;8.20;;;2.08;;
15126;SDS011;7664;52.008;4.748;2024-01-27T03:17:16;6.82;;;2.10;;
15126;SDS011;7664;52.008;4.748;2024-01-27T03:19:44;10.90;;;3.08;;
15126;SDS011;7664;52.008;4.748;2024-01-27T03:22:15;12.48;;;2.42;;
15126;SDS011;7664;52.008;4.748;2024-01-27T03:24:43;7.05;;;2.78;;
15126;SDS011;7664;52.008;4.748;2024-01-27T03:27:12;9.68;;;3.33;;
15126;SDS011;7664;52.008;4.748;2024-01-27T03:29:40;8.32;;;3.47;;
15126;SDS011;7664;52.008;4.748;2024-01-27T03:32:09;12.15;;;3.10;;
15126;SDS011;7664;52.008;4.748;2024-01-27T03:34:41;13.57;;;4.47;;
15126;SDS011;7664;52.008;4.748;2024-01-27T03:37:09;8.27;;;3.53;;
15126;SDS011;7664;52.008;4.748;2024-01-27T03:39:40;8.00;;;3.97;;
15126;SDS011;7664;52.008;4.748;2024-01-27T03:42:09;12.02;;;4.75;;
15126;SDS011;7664;52.008;4.748;2024-01-27T03:44:38;13.20;;;3.75;;
15126;SDS011;7664;52.008;4.748;2024-01-27T03:47:07;11.90;;;3.72;;
15126;SDS011;7664;52.008;4.748;2024-01-27T03:49:35;9.70;;;4.25;;
15126;SDS011;7664;52.008;4.748;2024-01-27T03:52:05;8.52;;;4.53;;
15126;SDS011;7664;52.008;4.748;2024-01-27T03:54:34;15.07;;;4.72;;
15126;SDS011;7664;52.008;4.748;2024-01-27T03:57:02;11.75;;;4.68;;
15126;SDS011;7664;52.008;4.748;2024-01-27T03:59:33;14.90;;;4.22;;
15126;SDS011;7664;52.008;4.748;2024-01-27T04:02:02;11.57;;;4.88;;
15126;SDS011;7664;52.008;4.748;2024-01-27T04:04:30;12.55;;;5.30;;
15126;SDS011;7664;52.008;4.748;2024-01-27T04:06:59;14.63;;;4.80;;
15126;SDS011;7664;52.008;4.748;2024-01-27T04:09:30;10.63;;;5.22;;
15126;SDS011;7664;52.008;4.748;2024-01-27T04:11:59;12.07;;;5.95;;
15126;SDS011;7664;52.008;4.748;2024-01-27T04:14:27;11.82;;;5.78;;
15126;SDS011;7664;52.008;4.748;2024-01-27T04:16:56;13.50;;;6.30;;
15126;SDS011;7664;52.008;4.748;2024-01-27T04:19:25;10.93;;;6.20;;
15126;SDS011;7664;52.008;4.748;2024-01-27T04:21:53;13.57;;;6.18;;
15126;SDS011;7664;52.008;4.748;2024-01-27T04:24:22;11.32;;;6.60;;
15126;SDS011;7664;52.008;4.748;2024-01-27T04:26:52;11.98;;;6.40;;
15126;SDS011;7664;52.008;4.748;2024-01-27T04:29:21;12.50;;;6.72;;
15126;SDS011;7664;52.008;4.748;2024-01-27T04:31:50;11.63;;;6.10;;
15126;SDS011;7664;52.008;4.748;2024-01-27T04:34:19;10.32;;;6.10;;
15126;SDS011;7664;52.008;4.748;2024-01-27T04:36:47;11.95;;;5.53;;
15126;SDS011;7664;52.008;4.748;2024-01-27T04:39:16;13.63;;;6.22;;
15126;SDS011;7664;52.008;4.748;2024-01-27T04:41:44;15.23;;;6.63;;
15126;SDS011;7664;52.008;4.748;2024-01-27T04:44:14;11.63;;;5.75;;
15126;SDS011;7664;52.008;4.748;2024-01-27T04:46:43;12.55;;;6.07;;
15126;SDS011;7664;52.008;4.748;2024-01-27T04:49:11;14.23;;;6.47;;
15126;SDS011;7664;52.008;4.748;2024-01-27T04:51:40;11.13;;;5.40;;
15126;SDS011;7664;52.008;4.748;2024-01-27T04:54:08;12.15;;;6.22;;
15126;SDS011;7664;52.008;4.748;2024-01-27T04:56:37;12.52;;;6.43;;
15126;SDS011;7664;52.008;4.748;2024-01-27T04:59:05;12.18;;;6.55;;
15126;SDS011;7664;52.008;4.748;2024-01-27T05:01:35;13.95;;;5.75;;
15126;SDS011;7664;52.008;4.748;2024-01-27T05:04:03;15.60;;;6.22;;
15126;SDS011;7664;52.008;4.748;2024-01-27T05:06:32;12.77;;;6.35;;
15126;SDS011;7664;52.008;4.748;2024-01-27T05:09:01;14.93;;;5.93;;
15126;SDS011;7664;52.008;4.748;2024-01-27T05:11:31;18.65;;;6.47;;
15126;SDS011;7664;52.008;4.748;2024-01-27T05:13:59;14.48;;;5.57;;
15126;SDS011;7664;52.008;4.748;2024-01-27T05:16:28;10.57;;;6.25;;
15126;SDS011;7664;52.008;4.748;2024-01-27T05:18:59;10.13;;;5.90;;
15126;SDS011;7664;52.008;4.748;2024-01-27T05:21:28;13.57;;;5.90;;
15126;SDS011;7664;52.008;4.748;2024-01-27T05:23:57;10.57;;;5.40;;
15126;SDS011;7664;52.008;4.748;2024-01-27T05:26:25;9.05;;;5.60;;
15126;SDS011;7664;52.008;4.748;2024-01-27T05:28:54;11.65;;;6.43;;
15126;SDS011;7664;52.008;4.748;2024-01-27T05:31:22;12.93;;;6.22;;
15126;SDS011;7664;52.008;4.748;2024-01-27T05:33:51;10.10;;;5.68;;
15126;SDS011;7664;52.008;4.748;2024-01-27T05:36:21;9.43;;;5.68;;
15126;SDS011;7664;52.008;4.748;2024-01-27T05:38:49;15.82;;;6.13;;
15126;SDS011;7664;52.008;4.748;2024-01-27T05:41:18;10.20;;;5.50;;
15126;SDS011;7664;52.008;4.748;2024-01-27T05:43:46;13.75;;;4.97;;
15126;SDS011;7664;52.008;4.748;2024-01-27T05:46:15;8.95;;;5.95;;
15126;SDS011;7664;52.008;4.748;2024-01-27T05:48:43;11.45;;;6.03;;
15126;SDS011;7664;52.008;4.748;2024-01-27T05:51:12;10.32;;;6.13;;
15126;SDS011;7664;52.008;4.748;2024-01-27T05:53:42;14.48;;;5.97;;
15126;SDS011;7664;52.008;4.748;2024-01-27T05:56:10;12.98;;;6.32;;
15126;SDS011;7664;52.008;4.748;2024-01-27T05:58:39;8.93;;;5.47;;
15126;SDS011;7664;52.008;4.748;2024-01-27T06:01:07;12.23;;;5.57;;
15126;SDS011;7664;52.008;4.748;2024-01-27T06:03:36;8.80;;;4.90;;
15126;SDS011;7664;52.008;4.748;2024-01-27T06:06:04;15.93;;;6.00;;
15126;SDS011;7664;52.008;4.748;2024-01-27T06:08:33;11.30;;;5.88;;
15126;SDS011;7664;52.008;4.748;2024-01-27T06:11:03;10.90;;;6.10;;
15126;SDS011;7664;52.008;4.748;2024-01-27T06:13:35;14.05;;;6.53;;
15126;SDS011;7664;52.008;4.748;2024-01-27T06:16:06;10.38;;;5.25;;
15126;SDS011;7664;52.008;4.748;2024-01-27T06:18:36;12.00;;;5.40;;
15126;SDS011;7664;52.008;4.748;2024-01-27T06:21:05;9.07;;;5.60;;
15126;SDS011;7664;52.008;4.748;2024-01-27T06:23:34;9.73;;;5.63;;
15126;SDS011;7664;52.008;4.748;2024-01-27T06:26:05;8.90;;;6.03;;
15126;SDS011;7664;52.008;4.748;2024-01-27T06:28:34;12.02;;;5.22;;
15126;SDS011;7664;52.008;4.748;2024-01-27T06:31:03;13.98;;;6.65;;
15126;SDS011;7664;52.008;4.748;2024-01-27T06:33:31;15.30;;;6.15;;
15126;SDS011;7664;52.008;4.748;2024-01-27T06:36:00;8.88;;;5.35;;
15126;SDS011;7664;52.008;4.748;2024-01-27T06:38:29;13.38;;;6.47;;
15126;SDS011;7664;52.008;4.748;2024-01-27T06:40:58;9.07;;;5.07;;
15126;SDS011;7664;52.008;4.748;2024-01-27T06:43:28;13.65;;;5.68;;
15126;SDS011;7664;52.008;4.748;2024-01-27T06:45:56;11.02;;;5.63;;
15126;SDS011;7664;52.008;4.748;2024-01-27T06:48:25;12.18;;;5.60;;
15126;SDS011;7664;52.008;4.748;2024-01-27T06:50:54;12.10;;;6.57;;
15126;SDS011;7664;52.008;4.748;2024-01-27T06:53:22;11.25;;;5.93;;
15126;SDS011;7664;52.008;4.748;2024-01-27T06:55:51;15.57;;;5.97;;
15126;SDS011;7664;52.008;4.748;2024-01-27T06:58:20;11.73;;;6.47;;
15126;SDS011;7664;52.008;4.748;2024-01-27T07:00:50;11.70;;;6.45;;
15126;SDS011;7664;52.008;4.748;2024-01-27T07:03:19;9.65;;;4.93;;
15126;SDS011;7664;52.008;4.748;2024-01-27T07:05:48;7.97;;;5.53;;
15126;SDS011;7664;52.008;4.748;2024-01-27T07:08:17;10.88;;;6.60;;
15126;SDS011;7664;52.008;4.748;2024-01-27T07:10:45;9.77;;;6.00;;
15126;SDS011;7664;52.008;4.748;2024-01-27T07:13:14;11.10;;;6.82;;
15126;SDS011;7664;52.008;4.748;2024-01-27T07:15:42;10.45;;;5.95;;
15126;SDS011;7664;52.008;4.748;2024-01-27T07:18:12;8.18;;;5.50;;
15126;SDS011;7664;52.008;4.748;2024-01-27T07:20:41;11.57;;;5.97;;
15126;SDS011;7664;52.008;4.748;2024-01-27T07:23:10;12.82;;;6.28;;
15126;SDS011;7664;52.008;4.748;2024-01-27T07:25:39;8.70;;;5.57;;
15126;SDS011;7664;52.008;4.748;2024-01-27T07:28:07;12.77;;;6.13;;
15126;SDS011;7664;52.008;4.748;2024-01-27T07:30:35;10.75;;;6.60;;
15126;SDS011;7664;52.008;4.748;2024-01-27T07:33:04;13.27;;;6.00;;
15126;SDS011;7664;52.008;4.748;2024-01-27T07:35:34;13.50;;;6.97;;
15126;SDS011;7664;52.008;4.748;2024-01-27T07:38:03;13.90;;;7.40;;
15126;SDS011;7664;52.008;4.748;2024-01-27T07:40:31;10.07;;;6.28;;
15126;SDS011;7664;52.008;4.748;2024-01-27T07:43:03;11.20;;;5.75;;
15126;SDS011;7664;52.008;4.748;2024-01-27T07:45:31;11.88;;;7.13;;
15126;SDS011;7664;52.008;4.748;2024-01-27T07:48:00;11.30;;;6.53;;
15126;SDS011;7664;52.008;4.748;2024-01-27T07:50:29;13.80;;;6.97;;
15126;SDS011;7664;52.008;4.748;2024-01-27T07:52:59;15.50;;;7.68;;
15126;SDS011;7664;52.008;4.748;2024-01-27T07:55:28;10.48;;;6.05;;
15126;SDS011;7664;52.008;4.748;2024-01-27T07:57:58;10.68;;;6.57;;
15126;SDS011;7664;52.008;4.748;2024-01-27T08:00:27;9.15;;;6.30;;
15126;SDS011;7664;52.008;4.748;2024-01-27T08:02:55;14.00;;;6.68;;
15126;SDS011;7664;52.008;4.748;2024-01-27T08:05:24;17.70;;;6.32;;
15126;SDS011;7664;52.008;4.748;2024-01-27T08:07:52;13.85;;;6.90;;
15126;SDS011;7664;52.008;4.748;2024-01-27T08:10:23;10.60;;;6.50;;
15126;SDS011;7664;52.008;4.748;2024-01-27T08:12:52;14.82;;;6.78;;
15126;SDS011;7664;52.008;4.748;2024-01-27T08:15:20;12.32;;;7.18;;
15126;SDS011;7664;52.008;4.748;2024-01-27T08:17:49;9.55;;;6.45;;
15126;SDS011;7664;52.008;4.748;2024-01-27T08:20:17;11.60;;;6.60;;
15126;SDS011;7664;52.008;4.748;2024-01-27T08:22:46;12.65;;;6.07;;
15126;SDS011;7664;52.008;4.748;2024-01-27T08:25:16;12.73;;;7.07;;
15126;SDS011;7664;52.008;4.748;2024-01-27T08:27:46;10.90;;;5.90;;
15126;SDS011;7664;52.008;4.748;2024-01-27T08:30:15;14.23;;;6.38;;
15126;SDS011;7664;52.008;4.748;2024-01-27T08:32:43;11.30;;;6.35;;
15126;SDS011;7664;52.008;4.748;2024-01-27T08:35:12;13.40;;;6.80;;
15126;SDS011;7664;52.008;4.748;2024-01-27T08:37:41;15.45;;;6.88;;
15126;SDS011;7664;52.008;4.748;2024-01-27T08:40:10;12.38;;;6.40;;
15126;SDS011;7664;52.008;4.748;2024-01-27T08:42:40;14.20;;;6.63;;
15126;SDS011;7664;52.008;4.748;2024-01-27T08:45:10;14.48;;;7.75;;
15126;SDS011;7664;52.008;4.748;2024-01-27T08:47:38;11.05;;;6.85;;
15126;SDS011;7664;52.008;4.748;2024-01-27T08:50:07;14.50;;;7.15;;
15126;SDS011;7664;52.008;4.748;2024-01-27T08:52:37;12.10;;;6.82;;
15126;SDS011;7664;52.008;4.748;2024-01-27T08:55:06;11.38;;;6.80;;
15126;SDS011;7664;52.008;4.748;2024-01-27T08:57:35;11.55;;;6.50;;
15126;SDS011;7664;52.008;4.748;2024-01-27T09:00:04;13.85;;;7.32;;
15126;SDS011;7664;52.008;4.748;2024-01-27T09:02:34;10.73;;;6.93;;
15126;SDS011;7664;52.008;4.748;2024-01-27T09:05:03;10.30;;;7.15;;
15126;SDS011;7664;52.008;4.748;2024-01-27T09:07:31;14.93;;;7.88;;
15126;SDS011;7664;52.008;4.748;2024-01-27T09:10:00;15.70;;;7.10;;
15126;SDS011;7664;52.008;4.748;2024-01-27T09:12:32;11.40;;;7.00;;
15126;SDS011;7664;52.008;4.748;2024-01-27T09:15:00;13.43;;;7.22;;
15126;SDS011;7664;52.008;4.748;2024-01-27T09:17:29;12.00;;;7.55;;
15126;SDS011;7664;52.008;4.748;2024-01-27T09:19:59;16.58;;;7.13;;
15126;SDS011;7664;52.008;4.748;2024-01-27T09:22:28;12.60;;;7.18;;
15126;SDS011;7664;52.008;4.748;2024-01-27T09:24:57;17.83;;;7.90;;
15126;SDS011;7664;52.008;4.748;2024-01-27T09:27:25;12.20;;;6.47;;
15126;SDS011;7664;52.008;4.748;2024-01-27T09:29:53;11.57;;;7.00;;
15126;SDS011;7664;52.008;4.748;2024-01-27T09:32:22;18.25;;;7.53;;
15126;SDS011;7664;52.008;4.748;2024-01-27T09:34:50;11.45;;;6.32;;
15126;SDS011;7664;52.008;4.748;2024-01-27T09:37:21;14.82;;;7.45;;
15126;SDS011;7664;52.008;4.748;2024-01-27T09:39:55;12.02;;;6.65;;
15126;SDS011;7664;52.008;4.748;2024-01-27T09:42:23;15.35;;;7.57;;
15126;SDS011;7664;52.008;4.748;2024-01-27T09:44:52;12.95;;;6.97;;
15126;SDS011;7664;52.008;4.748;2024-01-27T09:47:21;16.50;;;6.82;;
15126;SDS011;7664;52.008;4.748;2024-01-27T09:49:50;12.05;;;6.57;;
15126;SDS011;7664;52.008;4.748;2024-01-27T09:52:19;15.65;;;7.72;;
15126;SDS011;7664;52.008;4.748;2024-01-27T09:54:49;13.90;;;6.43;;
15126;SDS011;7664;52.008;4.748;2024-01-27T09:57:18;14.30;;;6.68;;
15126;SDS011;7664;52.008;4.748;2024-01-27T09:59:47;13.27;;;6.80;;
15126;SDS011;7664;52.008;4.748;2024-01-27T10:02:17;12.88;;;7.57;;
15126;SDS011;7664;52.008;4.748;2024-01-27T10:04:47;10.80;;;6.70;;
15126;SDS011;7664;52.008;4.748;2024-01-27T10:07:16;20.55;;;7.78;;
15126;SDS011;7664;52.008;4.748;2024-01-27T10:09:44;20.77;;;7.90;;
15126;SDS011;7664;52.008;4.748;2024-01-27T10:12:18;19.13;;;8.20;;
15126;SDS011;7664;52.008;4.748;2024-01-27T10:14:49;16.45;;;7.47;;
15126;SDS011;7664;52.008;4.748;2024-01-27T10:17:22;14.02;;;7.13;;
15126;SDS011;7664;52.008;4.748;2024-01-27T10:20:03;14.00;;;7.43;;
15126;SDS011;7664;52.008;4.748;2024-01-27T10:22:38;15.35;;;7.68;;
15126;SDS011;7664;52.008;4.748;2024-01-27T10:25:07;12.85;;;7.55;;
15126;SDS011;7664;52.008;4.748;2024-01-27T10:27:37;17.35;;;9.07;;
15126;SDS011;7664;52.008;4.748;2024-01-27T10:30:06;16.67;;;7.47;;
15126;SDS011;7664;52.008;4.748;2024-01-27T10:32:43;18.05;;;7.85;;
15126;SDS011;7664;52.008;4.748;2024-01-27T10:35:11;16.65;;;7.85;;
15126;SDS011;7664;52.008;4.748;2024-01-27T10:37:41;14.40;;;7.28;;
15126;SDS011;7664;52.008;4.748;2024-01-27T10:40:09;11.07;;;7.80;;
15126;SDS011;7664;52.008;4.748;2024-01-27T10:42:40;14.55;;;7.20;;
15126;SDS011;7664;52.008;4.748;2024-01-27T10:45:09;19.23;;;6.80;;
15126;SDS011;7664;52.008;4.748;2024-01-27T10:47:39;12.63;;;7.75;;
15126;SDS011;7664;52.008;4.748;2024-01-27T10:50:09;12.55;;;7.28;;
15126;SDS011;7664;52.008;4.748;2024-01-27T10:52:38;16.80;;;7.13;;
15126;SDS011;7664;52.008;4.748;2024-01-27T10:55:07;14.55;;;7.10;;
15126;SDS011;7664;52.008;4.748;2024-01-27T10:57:38;16.98;;;7.53;;
15126;SDS011;7664;52.008;4.748;2024-01-27T11:00:09;16.10;;;7.80;;
15126;SDS011;7664;52.008;4.748;2024-01-27T11:02:39;16.23;;;6.32;;
15126;SDS011;7664;52.008;4.748;2024-01-27T11:05:08;18.80;;;7.18;;
15126;SDS011;7664;52.008;4.748;2024-01-27T11:07:38;15.60;;;6.45;;
15126;SDS011;7664;52.008;4.748;2024-01-27T11:10:08;18.45;;;6.75;;
15126;SDS011;7664;52.008;4.748;2024-01-27T11:12:36;12.85;;;6.28;;
15126;SDS011;7664;52.008;4.748;2024-01-27T11:15:06;17.40;;;7.57;;
15126;SDS011;7664;52.008;4.748;2024-01-27T11:17:39;12.63;;;6.68;;
15126;SDS011;7664;52.008;4.748;2024-01-27T11:20:08;13.00;;;6.55;;
15126;SDS011;7664;52.008;4.748;2024-01-27T11:22:37;15.82;;;7.03;;
15126;SDS011;7664;52.008;4.748;2024-01-27T11:25:14;15.77;;;5.75;;
15126;SDS011;7664;52.008;4.748;2024-01-27T11:27:43;18.75;;;6.53;;
15126;SDS011;7664;52.008;4.748;2024-01-27T11:30:24;22.33;;;7.55;;
15126;SDS011;7664;52.008;4.748;2024-01-27T11:32:54;12.77;;;6.07;;
15126;SDS011;7664;52.008;4.748;2024-01-27T11:35:23;18.02;;;6.85;;
15126;SDS011;7664;52.008;4.748;2024-01-27T11:37:53;14.57;;;7.30;;
15126;SDS011;7664;52.008;4.748;2024-01-27T11:40:22;19.73;;;6.55;;
15126;SDS011;7664;52.008;4.748;2024-01-27T11:42:54;15.15;;;6.32;;
15126;SDS011;7664;52.008;4.748;2024-01-27T11:45:23;18.10;;;7.88;;
15126;SDS011;7664;52.008;4.748;2024-01-27T11:47:51;16.25;;;7.65;;
15126;SDS011;7664;52.008;4.748;2024-01-27T11:50:22;15.00;;;5.68;;
15126;SDS011;7664;52.008;4.748;2024-01-27T11:52:50;9.93;;;5.38;;
15126;SDS011;7664;52.008;4.748;2024-01-27T11:55:19;24.92;;;6.80;;
15126;SDS011;7664;52.008;4.748;2024-01-27T11:57:48;14.55;;;5.38;;
15126;SDS011;7664;52.008;4.748;2024-01-27T12:00:18;12.50;;;6.05;;
15126;SDS011;7664;52.008;4.748;2024-01-27T12:02:49;17.80;;;6.65;;
15126;SDS011;7664;52.008;4.748;2024-01-27T12:05:18;15.48;;;5.05;;
15126;SDS011;7664;52.008;4.748;2024-01-27T12:07:48;15.57;;;6.00;;
15126;SDS011;7664;52.008;4.748;2024-01-27T12:10:17;14.63;;;6.15;;
15126;SDS011;7664;52.008;4.748;2024-01-27T12:12:46;16.13;;;6.25;;
15126;SDS011;7664;52.008;4.748;2024-01-27T12:15:14;14.35;;;6.53;;
15126;SDS011;7664;52.008;4.748;2024-01-27T12:17:49;14.23;;;5.07;;
15126;SDS011;7664;52.008;4.748;2024-01-27T12:20:18;13.75;;;6.07;;
15126;SDS011;7664;52.008;4.748;2024-01-27T12:22:48;12.00;;;4.80;;
15126;SDS011;7664;52.008;4.748;2024-01-27T12:25:20;20.42;;;5.43;;
15126;SDS011;7664;52.008;4.748;2024-01-27T12:27:49;13.82;;;4.82;;
15126;SDS011;7664;52.008;4.748;2024-01-27T12:30:17;9.93;;;4.88;;
15126;SDS011;7664;52.008;4.748;2024-01-27T12:32:46;14.10;;;4.43;;
15126;SDS011;7664;52.008;4.748;2024-01-27T12:35:14;10.35;;;3.60;;
15126;SDS011;7664;52.008;4.748;2024-01-27T12:37:43;10.43;;;4.63;;
15126;SDS011;7664;52.008;4.748;2024-01-27T12:40:18;11.68;;;4.70;;
15126;SDS011;7664;52.008;4.748;2024-01-27T12:42:49;11.15;;;4.25;;
15126;SDS011;7664;52.008;4.748;2024-01-27T12:45:18;10.65;;;4.15;;
15126;SDS011;7664;52.008;4.748;2024-01-27T12:47:47;12.63;;;4.78;;
15126;SDS011;7664;52.008;4.748;2024-01-27T12:50:16;13.60;;;4.88;;
15126;SDS011;7664;52.008;4.748;2024-01-27T12:52:45;15.95;;;6.50;;
15126;SDS011;7664;52.008;4.748;2024-01-27T12:55:13;18.30;;;5.53;;
15126;SDS011;7664;52.008;4.748;2024-01-27T12:57:43;11.93;;;4.85;;
15126;SDS011;7664;52.008;4.748;2024-01-27T13:00:13;12.85;;;4.95;;
15126;SDS011;7664;52.008;4.748;2024-01-27T13:02:42;16.67;;;5.28;;
15126;SDS011;7664;52.008;4.748;2024-01-27T13:05:10;11.60;;;5.00;;
15126;SDS011;7664;52.008;4.748;2024-01-27T13:07:39;14.82;;;5.82;;
15126;SDS011;7664;52.008;4.748;2024-01-27T13:10:08;16.30;;;5.32;;
15126;SDS011;7664;52.008;4.748;2024-01-27T13:12:37;23.60;;;5.53;;
15126;SDS011;7664;52.008;4.748;2024-01-27T13:15:07;11.65;;;4.72;;
15126;SDS011;7664;52.008;4.748;2024-01-27T13:17:36;12.07;;;5.35;;
15126;SDS011;7664;52.008;4.748;2024-01-27T13:20:04;12.07;;;4.82;;
15126;SDS011;7664;52.008;4.748;2024-01-27T13:22:34;14.65;;;5.18;;
15126;SDS011;7664;52.008;4.748;2024-01-27T13:25:02;13.23;;;5.38;;
15126;SDS011;7664;52.008;4.748;2024-01-27T13:27:34;13.95;;;5.28;;
15126;SDS011;7664;52.008;4.748;2024-01-27T13:30:03;12.88;;;4.75;;
15126;SDS011;7664;52.008;4.748;2024-01-27T13:32:33;10.23;;;5.13;;
15126;SDS011;7664;52.008;4.748;2024-01-27T13:35:02;17.05;;;4.72;;
15126;SDS011;7664;52.008;4.748;2024-01-27T13:37:30;17.83;;;5.50;;
15126;SDS011;7664;52.008;4.748;2024-01-27T13:40:00;10.73;;;5.13;;
15126;SDS011;7664;52.008;4.748;2024-01-27T13:42:29;18.30;;;4.82;;
15126;SDS011;7664;52.008;4.748;2024-01-27T13:44:58;19.02;;;4.80;;
15126;SDS011;7664;52.008;4.748;2024-01-27T13:47:27;9.82;;;4.80;;
15126;SDS011;7664;52.008;4.748;2024-01-27T13:49:58;15.48;;;5.53;;
15126;SDS011;7664;52.008;4.748;2024-01-27T13:52:27;16.65;;;5.30;;
15126;SDS011;7664;52.008;4.748;2024-01-27T13:54:56;14.45;;;5.10;;
15126;SDS011;7664;52.008;4.748;2024-01-27T13:57:24;11.13;;;5.45;;
15126;SDS011;7664;52.008;4.748;2024-01-27T13:59:53;15.70;;;5.88;;
15126;SDS011;7664;52.008;4.748;2024-01-27T14:02:21;13.20;;;5.55;;
15126;SDS011;7664;52.008;4.748;2024-01-27T14:04:51;16.23;;;5.43;;
15126;SDS011;7664;52.008;4.748;2024-01-27T14:07:21;13.10;;;5.45;;
15126;SDS011;7664;52.008;4.748;2024-01-27T14:09:50;13.82;;;5.50;;
15126;SDS011;7664;52.008;4.748;2024-01-27T14:12:18;13.55;;;4.55;;
15126;SDS011;7664;52.008;4.748;2024-01-27T14:14:48;12.85;;;4.90;;
15126;SDS011;7664;52.008;4.748;2024-01-27T14:17:17;11.73;;;5.40;;
15126;SDS011;7664;52.008;4.748;2024-01-27T14:19:47;13.27;;;5.20;;
15126;SDS011;7664;52.008;4.748;2024-01-27T14:22:15;12.73;;;5.10;;
15126;SDS011;7664;52.008;4.748;2024-01-27T14:24:45;10.63;;;4.57;;
15126;SDS011;7664;52.008;4.748;2024-01-27T14:27:14;14.23;;;5.40;;
15126;SDS011;7664;52.008;4.748;2024-01-27T14:29:44;14.65;;;5.65;;
15126;SDS011;7664;52.008;4.748;2024-01-27T14:32:12;11.40;;;5.32;;
15126;SDS011;7664;52.008;4.748;2024-01-27T14:34:41;18.38;;;6.43;;
15126;SDS011;7664;52.008;4.748;2024-01-27T14:37:10;16.33;;;6.05;;
15126;SDS011;7664;52.008;4.748;2024-01-27T14:39:39;14.63;;;5.70;;
15126;SDS011;7664;52.008;4.748;2024-01-27T14:42:10;14.68;;;6.45;;
15126;SDS011;7664;52.008;4.748;2024-01-27T14:44:38;10.85;;;5.38;;
15126;SDS011;7664;52.008;4.748;2024-01-27T14:47:07;16.02;;;5.68;;
15126;SDS011;7664;52.008;4.748;2024-01-27T14:49:36;11.48;;;5.18;;
15126;SDS011;7664;52.008;4.748;2024-01-27T14:52:05;18.75;;;6.18;;
15126;SDS011;7664;52.008;4.748;2024-01-27T14:54:34;15.65;;;6.43;;
15126;SDS011;7664;52.008;4.748;2024-01-27T14:57:04;10.07;;;5.50;;
15126;SDS011;7664;52.008;4.748;2024-01-27T14:59:37;12.10;;;6.78;;
15126;SDS011;7664;52.008;4.748;2024-01-27T15:02:06;18.90;;;6.22;;